Time,TemperatureF,DewpointF,PressureIn,WindDirection,WindDirectionDegrees,WindSpeedMPH,WindSpeedGustMPH,Humidity,HourlyPrecipIn,Conditions,Clouds,dailyrainin,SolarRadiationWatts/m^2,SoftwareType,DateUTC
2013-10-23 00:00:00,68.8,65.1,28.79,NNE,27,2.0,2.0,88,0.00,,,0.00,0,Wunderground v.1.15,2013-10-22 13:00:00,
2013-10-23 00:01:00,68.5,64.8,28.81,North,0,1.0,-999.0,88,0.00,,,0.00,0,Wunderground v.1.15,2013-10-22 13:01:00,
2013-10-23 00:05:00,68.7,65.0,28.79,NNW,337,1.0,10.0,88,0.00,,,0.00,0,Wunderground v.1.15,2013-10-22 13:05:00,
2013-10-23 00:06:00,68.5,64.8,28.81,North,0,1.0,-999.0,88,0.00,,,0.00,0,Wunderground v.1.15,2013-10-22 13:06:00,
2013-10-23 00:10:00,68.6,64.9,28.79,NNW,340,1.0,1.0,88,0.00,,,0.00,0,Wunderground v.1.15,2013-10-22 13:10:00,
2013-10-23 00:11:00,68.5,64.8,28.81,North,0,1.0,-999.0,88,0.00,,,0.00,0,Wunderground v.1.15,2013-10-22 13:11:00,
2013-10-23 00:16:00,68.5,64.8,28.81,North,0,1.0,-999.0,88,0.00,,,0.00,0,Wunderground v.1.15,2013-10-22 13:16:00,
2013-10-23 00:20:00,68.5,64.8,28.78,North,9,1.0,10.0,88,0.00,,,0.00,0,Wunderground v.1.15,2013-10-22 13:20:00,
2013-10-23 00:21:00,68.5,64.8,28.81,North,0,1.0,-999.0,88,0.00,,,0.00,0,Wunderground v.1.15,2013-10-22 13:21:00,
2013-10-23 00:25:00,68.5,64.8,28.78,WNW,302,1.0,10.0,88,0.00,,,0.00,0,Wunderground v.1.15,2013-10-22 13:25:00,
2013-10-23 00:26:00,68.5,64.8,28.81,North,0,1.0,-999.0,88,0.00,,,0.00,0,Wunderground v.1.15,2013-10-22 13:26:00,
2013-10-23 00:30:00,68.5,64.5,28.78,WNW,299,1.0,1.0,87,0.00,,,0.00,0,Wunderground v.1.15,2013-10-22 13:30:00,
2013-10-23 00:31:00,68.5,64.8,28.81,North,0,1.0,-999.0,88,0.00,,,0.00,0,Wunderground v.1.15,2013-10-22 13:31:00,
2013-10-23 00:36:00,68.5,64.8,28.81,North,0,1.0,-999.0,88,0.00,,,0.00,0,Wunderground v.1.15,2013-10-22 13:36:00,
2013-10-23 00:41:00,68.5,64.8,28.81,North,0,1.0,-999.0,88,0.00,,,0.00,0,Wunderground v.1.15,2013-10-22 13:41:00,
2013-10-23 00:46:00,68.4,65.0,28.80,SSW,203,1.0,-999.0,89,0.00,,,0.00,0,Wunderground v.1.15,2013-10-22 13:46:00,
2013-10-23 00:51:00,68.4,65.0,28.80,SSW,203,1.0,-999.0,89,0.00,,,0.00,0,Wunderground v.1.15,2013-10-22 13:51:00,
2013-10-23 00:56:00,68.4,65.0,28.80,SSW,203,1.0,-999.0,89,0.00,,,0.00,0,Wunderground v.1.15,2013-10-22 13:56:00,
2013-10-23 01:01:00,68.4,65.0,28.80,SSW,203,1.0,-999.0,89,0.00,,,0.00,0,Wunderground v.1.15,2013-10-22 14:01:00,
2013-10-23 01:06:00,68.4,65.0,28.80,SSW,203,1.0,-999.0,89,0.00,,,0.00,0,Wunderground v.1.15,2013-10-22 14:06:00,
2013-10-23 01:11:00,68.4,65.0,28.80,SSW,203,1.0,-999.0,89,0.00,,,0.00,0,Wunderground v.1.15,2013-10-22 14:11:00,
2013-10-23 01:16:00,69.0,62.9,28.81,SSW,203,2.0,-999.0,81,0.00,,,0.00,0,Wunderground v.1.15,2013-10-22 14:16:00,
2013-10-23 01:21:00,69.0,62.9,28.81,SSW,203,2.0,-999.0,81,0.00,,,0.00,0,Wunderground v.1.15,2013-10-22 14:21:00,
2013-10-23 01:26:00,69.0,62.9,28.81,SSW,203,2.0,-999.0,81,0.00,,,0.00,0,Wunderground v.1.15,2013-10-22 14:26:00,
2013-10-23 01:31:00,69.0,62.9,28.81,SSW,203,2.0,-999.0,81,0.00,,,0.00,0,Wunderground v.1.15,2013-10-22 14:31:00,
2013-10-23 01:36:00,69.0,62.9,28.81,SSW,203,2.0,-999.0,81,0.00,,,0.00,0,Wunderground v.1.15,2013-10-22 14:36:00,
2013-10-23 01:41:00,69.0,62.9,28.81,SSW,203,2.0,-999.0,81,0.00,,,0.00,0,Wunderground v.1.15,2013-10-22 14:41:00,
2013-10-23 01:46:00,71.1,63.1,28.79,SSW,203,1.0,-999.0,76,0.00,,,0.00,0,Wunderground v.1.15,2013-10-22 14:46:00,
2013-10-23 01:51:00,71.1,63.1,28.79,SSW,203,1.0,-999.0,76,0.00,,,0.00,0,Wunderground v.1.15,2013-10-22 14:51:00,
2013-10-23 01:56:00,71.1,63.1,28.79,SSW,203,1.0,-999.0,76,0.00,,,0.00,0,Wunderground v.1.15,2013-10-22 14:56:00,
2013-10-23 02:01:00,71.1,63.1,28.79,SSW,203,1.0,-999.0,76,0.00,,,0.00,0,Wunderground v.1.15,2013-10-22 15:01:00,
2013-10-23 02:06:00,71.1,63.1,28.79,SSW,203,1.0,-999.0,76,0.00,,,0.00,0,Wunderground v.1.15,2013-10-22 15:06:00,
2013-10-23 02:11:00,71.1,63.1,28.79,SSW,203,1.0,-999.0,76,0.00,,,0.00,0,Wunderground v.1.15,2013-10-22 15:11:00,
2013-10-23 02:16:00,71.1,64.3,28.78,SE,135,0.0,-999.0,79,0.00,,,0.00,0,Wunderground v.1.15,2013-10-22 15:16:00,
2013-10-23 02:21:00,71.1,64.3,28.78,SE,135,0.0,-999.0,79,0.00,,,0.00,0,Wunderground v.1.15,2013-10-22 15:21:00,
2013-10-23 02:26:00,71.1,64.3,28.78,SE,135,0.0,-999.0,79,0.00,,,0.00,0,Wunderground v.1.15,2013-10-22 15:26:00,
2013-10-23 02:31:00,71.1,64.3,28.78,SE,135,0.0,-999.0,79,0.00,,,0.00,0,Wunderground v.1.15,2013-10-22 15:31:00,
2013-10-23 02:36:00,71.1,64.3,28.78,SE,135,0.0,-999.0,79,0.00,,,0.00,0,Wunderground v.1.15,2013-10-22 15:36:00,
2013-10-23 02:41:00,71.1,64.3,28.78,SE,135,0.0,-999.0,79,0.00,,,0.00,0,Wunderground v.1.15,2013-10-22 15:41:00,
2013-10-23 02:46:00,70.0,63.5,28.79,NNE,23,1.0,-999.0,80,0.00,,,0.00,0,Wunderground v.1.15,2013-10-22 15:46:00,
2013-10-23 02:51:00,70.0,63.5,28.79,NNE,23,1.0,-999.0,80,0.00,,,0.00,0,Wunderground v.1.15,2013-10-22 15:51:00,
2013-10-23 02:56:00,70.0,63.5,28.79,NNE,23,1.0,-999.0,80,0.00,,,0.00,0,Wunderground v.1.15,2013-10-22 15:56:00,
2013-10-23 03:01:00,70.0,63.5,28.79,NNE,23,1.0,-999.0,80,0.00,,,0.00,0,Wunderground v.1.15,2013-10-22 16:01:00,
2013-10-23 03:06:00,70.0,63.5,28.79,NNE,23,1.0,-999.0,80,0.00,,,0.00,0,Wunderground v.1.15,2013-10-22 16:06:00,
2013-10-23 03:11:00,70.0,63.5,28.79,NNE,23,1.0,-999.0,80,0.00,,,0.00,0,Wunderground v.1.15,2013-10-22 16:11:00,
2013-10-23 03:16:00,69.5,63.1,28.75,NNE,23,1.0,-999.0,80,0.00,,,0.00,0,Wunderground v.1.15,2013-10-22 16:16:00,
2013-10-23 03:21:00,69.5,63.1,28.75,NNE,23,1.0,-999.0,80,0.00,,,0.00,0,Wunderground v.1.15,2013-10-22 16:21:00,
2013-10-23 03:26:00,69.5,63.1,28.75,NNE,23,1.0,-999.0,80,0.00,,,0.00,0,Wunderground v.1.15,2013-10-22 16:26:00,
2013-10-23 03:31:00,69.5,63.1,28.75,NNE,23,1.0,-999.0,80,0.00,,,0.00,0,Wunderground v.1.15,2013-10-22 16:31:00,
2013-10-23 03:36:00,69.5,63.1,28.75,NNE,23,1.0,-999.0,80,0.00,,,0.00,0,Wunderground v.1.15,2013-10-22 16:36:00,
2013-10-23 03:41:00,69.5,63.1,28.75,NNE,23,1.0,-999.0,80,0.00,,,0.00,0,Wunderground v.1.15,2013-10-22 16:41:00,
2013-10-23 03:46:00,70.3,62.4,28.73,NNE,23,3.0,-999.0,76,0.00,,,0.00,0,Wunderground v.1.15,2013-10-22 16:46:00,
2013-10-23 03:51:00,70.3,62.4,28.73,NNE,23,3.0,-999.0,76,0.00,,,0.00,0,Wunderground v.1.15,2013-10-22 16:51:00,
2013-10-23 03:56:00,70.3,62.4,28.73,NNE,23,3.0,-999.0,76,0.00,,,0.00,0,Wunderground v.1.15,2013-10-22 16:56:00,
2013-10-23 04:01:00,70.3,62.4,28.73,NNE,23,3.0,-999.0,76,0.00,,,0.00,0,Wunderground v.1.15,2013-10-22 17:01:00,
2013-10-23 04:06:00,70.3,62.4,28.73,NNE,23,3.0,-999.0,76,0.00,,,0.00,0,Wunderground v.1.15,2013-10-22 17:06:00,
2013-10-23 04:11:00,70.3,62.4,28.73,NNE,23,3.0,-999.0,76,0.00,,,0.00,0,Wunderground v.1.15,2013-10-22 17:11:00,
2013-10-23 04:16:00,70.7,62.8,28.70,NNW,338,3.0,-999.0,76,0.00,,,0.00,0,Wunderground v.1.15,2013-10-22 17:16:00,
2013-10-23 04:21:00,70.7,62.8,28.70,NNW,338,3.0,-999.0,76,0.00,,,0.00,0,Wunderground v.1.15,2013-10-22 17:21:00,
2013-10-23 04:26:00,70.7,62.8,28.70,NNW,338,3.0,-999.0,76,0.00,,,0.00,0,Wunderground v.1.15,2013-10-22 17:26:00,
2013-10-23 04:31:00,70.7,62.8,28.70,NNW,338,3.0,-999.0,76,0.00,,,0.00,0,Wunderground v.1.15,2013-10-22 17:31:00,
2013-10-23 04:36:00,70.7,62.8,28.70,NNW,338,3.0,-999.0,76,0.00,,,0.00,0,Wunderground v.1.15,2013-10-22 17:36:00,
2013-10-23 04:41:00,70.7,62.8,28.70,NNW,338,3.0,-999.0,76,0.00,,,0.00,0,Wunderground v.1.15,2013-10-22 17:41:00,
2013-10-23 04:46:00,70.7,62.4,28.72,NNW,338,3.0,-999.0,75,0.00,,,0.00,0,Wunderground v.1.15,2013-10-22 17:46:00,
2013-10-23 04:51:00,70.7,62.4,28.72,NNW,338,3.0,-999.0,75,0.00,,,0.00,0,Wunderground v.1.15,2013-10-22 17:51:00,
2013-10-23 04:56:00,70.7,62.4,28.72,NNW,338,3.0,-999.0,75,0.00,,,0.00,0,Wunderground v.1.15,2013-10-22 17:56:00,
2013-10-23 05:01:00,70.7,62.4,28.72,NNW,338,3.0,-999.0,75,0.00,,,0.00,0,Wunderground v.1.15,2013-10-22 18:01:00,
2013-10-23 05:06:00,70.7,62.4,28.72,NNW,338,3.0,-999.0,75,0.00,,,0.00,0,Wunderground v.1.15,2013-10-22 18:06:00,
2013-10-23 05:11:00,70.7,62.4,28.72,NNW,338,3.0,-999.0,75,0.00,,,0.00,0,Wunderground v.1.15,2013-10-22 18:11:00,
2013-10-23 05:16:00,70.9,62.6,28.73,NNW,338,3.0,-999.0,75,0.00,,,0.00,6,Wunderground v.1.15,2013-10-22 18:16:00,
2013-10-23 05:21:00,70.9,62.6,28.73,NNW,338,3.0,-999.0,75,0.00,,,0.00,6,Wunderground v.1.15,2013-10-22 18:21:00,
2013-10-23 05:26:00,70.9,62.6,28.73,NNW,338,3.0,-999.0,75,0.00,,,0.00,6,Wunderground v.1.15,2013-10-22 18:26:00,
2013-10-23 05:31:00,70.9,62.6,28.73,NNW,338,3.0,-999.0,75,0.00,,,0.00,6,Wunderground v.1.15,2013-10-22 18:31:00,
2013-10-23 05:36:00,70.9,62.6,28.73,NNW,338,3.0,-999.0,75,0.00,,,0.00,6,Wunderground v.1.15,2013-10-22 18:36:00,
2013-10-23 05:41:00,70.9,62.6,28.73,NNW,338,3.0,-999.0,75,0.00,,,0.00,6,Wunderground v.1.15,2013-10-22 18:41:00,
2013-10-23 05:46:00,70.9,62.6,28.74,NNW,338,2.0,-999.0,75,0.00,,,0.00,35,Wunderground v.1.15,2013-10-22 18:46:00,
2013-10-23 05:51:00,70.9,62.6,28.74,NNW,338,2.0,-999.0,75,0.00,,,0.00,35,Wunderground v.1.15,2013-10-22 18:51:00,
2013-10-23 05:56:00,70.9,62.6,28.74,NNW,338,2.0,-999.0,75,0.00,,,0.00,35,Wunderground v.1.15,2013-10-22 18:56:00,
2013-10-23 06:01:00,70.9,62.6,28.74,NNW,338,2.0,-999.0,75,0.00,,,0.00,35,Wunderground v.1.15,2013-10-22 19:01:00,
2013-10-23 06:06:00,70.9,62.6,28.74,NNW,338,2.0,-999.0,75,0.00,,,0.00,35,Wunderground v.1.15,2013-10-22 19:06:00,
2013-10-23 06:11:00,70.9,62.6,28.74,NNW,338,2.0,-999.0,75,0.00,,,0.00,35,Wunderground v.1.15,2013-10-22 19:11:00,
2013-10-23 06:16:00,71.8,61.9,28.73,NNE,23,2.0,-999.0,71,0.00,,,0.00,47,Wunderground v.1.15,2013-10-22 19:16:00,
2013-10-23 06:21:00,71.8,61.9,28.73,NNE,23,2.0,-999.0,71,0.00,,,0.00,47,Wunderground v.1.15,2013-10-22 19:21:00,
2013-10-23 06:26:00,71.8,61.9,28.73,NNE,23,2.0,-999.0,71,0.00,,,0.00,47,Wunderground v.1.15,2013-10-22 19:26:00,
2013-10-23 06:31:00,71.8,61.9,28.73,NNE,23,2.0,-999.0,71,0.00,,,0.00,47,Wunderground v.1.15,2013-10-22 19:31:00,
2013-10-23 06:36:00,71.8,61.9,28.73,NNE,23,2.0,-999.0,71,0.00,,,0.00,47,Wunderground v.1.15,2013-10-22 19:36:00,
2013-10-23 06:41:00,71.8,61.9,28.73,NNE,23,2.0,-999.0,71,0.00,,,0.00,47,Wunderground v.1.15,2013-10-22 19:41:00,
2013-10-23 06:46:00,74.0,61.9,28.72,NNE,23,2.0,-999.0,66,0.00,,,0.00,119,Wunderground v.1.15,2013-10-22 19:46:00,
2013-10-23 06:51:00,74.0,61.9,28.72,NNE,23,2.0,-999.0,66,0.00,,,0.00,119,Wunderground v.1.15,2013-10-22 19:51:00,
2013-10-23 06:56:00,74.0,61.9,28.72,NNE,23,2.0,-999.0,66,0.00,,,0.00,119,Wunderground v.1.15,2013-10-22 19:56:00,
2013-10-23 07:01:00,74.0,61.9,28.72,NNE,23,2.0,-999.0,66,0.00,,,0.00,119,Wunderground v.1.15,2013-10-22 20:01:00,
2013-10-23 07:06:00,74.0,61.9,28.72,NNE,23,2.0,-999.0,66,0.00,,,0.00,119,Wunderground v.1.15,2013-10-22 20:06:00,
2013-10-23 07:11:00,74.0,61.9,28.72,NNE,23,2.0,-999.0,66,0.00,,,0.00,119,Wunderground v.1.15,2013-10-22 20:11:00,
2013-10-23 07:16:00,75.5,61.6,28.72,NNW,338,2.0,-999.0,62,0.00,,,0.00,162,Wunderground v.1.15,2013-10-22 20:16:00,
2013-10-23 07:21:00,75.5,61.6,28.72,NNW,338,2.0,-999.0,62,0.00,,,0.00,162,Wunderground v.1.15,2013-10-22 20:21:00,
2013-10-23 07:26:00,75.5,61.6,28.72,NNW,338,2.0,-999.0,62,0.00,,,0.00,162,Wunderground v.1.15,2013-10-22 20:26:00,
2013-10-23 07:31:00,75.5,61.6,28.72,NNW,338,2.0,-999.0,62,0.00,,,0.00,162,Wunderground v.1.15,2013-10-22 20:31:00,
2013-10-23 07:36:00,75.5,61.6,28.72,NNW,338,2.0,-999.0,62,0.00,,,0.00,162,Wunderground v.1.15,2013-10-22 20:36:00,
2013-10-23 07:41:00,75.5,61.6,28.72,NNW,338,2.0,-999.0,62,0.00,,,0.00,162,Wunderground v.1.15,2013-10-22 20:41:00,
2013-10-23 07:46:00,78.7,60.7,28.71,NNE,23,1.0,-999.0,54,0.00,,,0.00,480,Wunderground v.1.15,2013-10-22 20:46:00,
2013-10-23 07:51:00,78.7,60.7,28.71,NNE,23,1.0,-999.0,54,0.00,,,0.00,480,Wunderground v.1.15,2013-10-22 20:51:00,
2013-10-23 07:56:00,78.7,60.7,28.71,NNE,23,1.0,-999.0,54,0.00,,,0.00,480,Wunderground v.1.15,2013-10-22 20:56:00,
2013-10-23 08:00:00,74.8,62.7,28.72,North,350,2.0,3.0,66,0.00,,,0.00,104,Wunderground v.1.15,2013-10-22 21:00:00,
2013-10-23 08:01:00,78.7,60.7,28.71,NNE,23,1.0,-999.0,54,0.00,,,0.00,480,Wunderground v.1.15,2013-10-22 21:01:00,
2013-10-23 08:06:00,78.7,60.7,28.71,NNE,23,1.0,-999.0,54,0.00,,,0.00,480,Wunderground v.1.15,2013-10-22 21:06:00,
2013-10-23 08:10:00,75.2,62.6,28.73,NNE,18,3.0,10.0,65,0.00,,,0.00,105,Wunderground v.1.15,2013-10-22 21:10:00,
2013-10-23 08:11:00,78.7,60.7,28.71,NNE,23,1.0,-999.0,54,0.00,,,0.00,480,Wunderground v.1.15,2013-10-22 21:11:00,
2013-10-23 08:16:00,82.2,61.7,28.70,NE,45,1.0,-999.0,50,0.00,,,0.00,537,Wunderground v.1.15,2013-10-22 21:16:00,
2013-10-23 08:21:00,82.2,61.7,28.70,NE,45,1.0,-999.0,50,0.00,,,0.00,537,Wunderground v.1.15,2013-10-22 21:21:00,
2013-10-23 08:26:00,82.2,61.7,28.70,NE,45,1.0,-999.0,50,0.00,,,0.00,537,Wunderground v.1.15,2013-10-22 21:26:00,
2013-10-23 08:31:00,82.2,61.7,28.70,NE,45,1.0,-999.0,50,0.00,,,0.00,537,Wunderground v.1.15,2013-10-22 21:31:00,
2013-10-23 08:36:00,82.2,61.7,28.70,NE,45,1.0,-999.0,50,0.00,,,0.00,537,Wunderground v.1.15,2013-10-22 21:36:00,
2013-10-23 08:40:00,77.9,62.4,28.72,NNE,28,1.0,1.0,59,0.00,,,0.00,200,Wunderground v.1.15,2013-10-22 21:40:00,
2013-10-23 08:41:00,82.2,61.7,28.70,NE,45,1.0,-999.0,50,0.00,,,0.00,537,Wunderground v.1.15,2013-10-22 21:41:00,
2013-10-23 08:46:00,83.5,59.9,28.70,ENE,68,2.0,-999.0,45,0.00,,,0.00,662,Wunderground v.1.15,2013-10-22 21:46:00,
2013-10-23 08:50:00,79.0,62.0,28.72,NW,313,1.0,1.0,56,0.00,,,0.00,543,Wunderground v.1.15,2013-10-22 21:50:00,
2013-10-23 08:51:00,83.5,59.9,28.70,ENE,68,2.0,-999.0,45,0.00,,,0.00,662,Wunderground v.1.15,2013-10-22 21:51:00,
2013-10-23 08:55:00,79.6,62.5,28.71,NNW,340,1.0,9.0,56,0.00,,,0.00,584,Wunderground v.1.15,2013-10-22 21:55:00,
2013-10-23 08:56:00,83.5,59.9,28.70,ENE,68,2.0,-999.0,45,0.00,,,0.00,662,Wunderground v.1.15,2013-10-22 21:56:00,
2013-10-23 09:00:00,80.7,63.0,28.71,ENE,63,1.0,9.0,55,0.00,,,0.00,621,Wunderground v.1.15,2013-10-22 22:00:00,
2013-10-23 09:01:00,83.5,59.9,28.70,ENE,68,2.0,-999.0,45,0.00,,,0.00,662,Wunderground v.1.15,2013-10-22 22:01:00,
2013-10-23 09:05:00,81.2,62.4,28.71,NE,48,2.0,9.0,53,0.00,,,0.00,642,Wunderground v.1.15,2013-10-22 22:05:00,
2013-10-23 09:06:00,83.5,59.9,28.70,ENE,68,2.0,-999.0,45,0.00,,,0.00,662,Wunderground v.1.15,2013-10-22 22:06:00,
2013-10-23 09:11:00,83.5,59.9,28.70,ENE,68,2.0,-999.0,45,0.00,,,0.00,662,Wunderground v.1.15,2013-10-22 22:11:00,
2013-10-23 09:15:00,82.2,61.7,28.71,NW,320,1.0,5.0,50,0.00,,,0.00,613,Wunderground v.1.15,2013-10-22 22:15:00,
2013-10-23 09:16:00,88.0,56.1,28.69,NW,315,7.0,-999.0,34,0.00,,,0.00,735,Wunderground v.1.15,2013-10-22 22:16:00,
2013-10-23 09:20:00,82.2,62.3,28.70,NE,56,0.0,5.0,51,0.00,,,0.00,392,Wunderground v.1.15,2013-10-22 22:20:00,
2013-10-23 09:21:00,88.0,56.1,28.69,NW,315,7.0,-999.0,34,0.00,,,0.00,735,Wunderground v.1.15,2013-10-22 22:21:00,
2013-10-23 09:25:00,83.1,63.1,28.70,NW,313,1.0,5.0,51,0.00,,,0.00,482,Wunderground v.1.15,2013-10-22 22:25:00,
2013-10-23 09:26:00,88.0,56.1,28.69,NW,315,7.0,-999.0,34,0.00,,,0.00,735,Wunderground v.1.15,2013-10-22 22:26:00,
2013-10-23 09:31:00,88.0,56.1,28.69,NW,315,7.0,-999.0,34,0.00,,,0.00,735,Wunderground v.1.15,2013-10-22 22:31:00,
2013-10-23 09:35:00,82.3,61.8,28.70,East,94,2.0,8.0,50,0.00,,,0.00,301,Wunderground v.1.15,2013-10-22 22:35:00,
2013-10-23 09:36:00,88.0,56.1,28.69,NW,315,7.0,-999.0,34,0.00,,,0.00,735,Wunderground v.1.15,2013-10-22 22:36:00,
2013-10-23 09:40:00,82.2,62.8,28.70,NNE,28,2.0,8.0,52,0.00,,,0.00,693,Wunderground v.1.15,2013-10-22 22:40:00,
2013-10-23 09:41:00,88.0,56.1,28.69,NW,315,7.0,-999.0,34,0.00,,,0.00,735,Wunderground v.1.15,2013-10-22 22:41:00,
2013-10-23 09:46:00,89.7,55.9,28.68,NW,315,10.0,-999.0,32,0.00,,,0.00,829,Wunderground v.1.15,2013-10-22 22:46:00,
2013-10-23 09:50:00,83.7,62.5,28.70,North,360,3.0,3.0,49,0.00,,,0.00,756,Wunderground v.1.15,2013-10-22 22:50:00,
2013-10-23 09:51:00,89.7,55.9,28.68,NW,315,10.0,-999.0,32,0.00,,,0.00,829,Wunderground v.1.15,2013-10-22 22:51:00,
2013-10-23 09:55:00,84.6,62.7,28.69,NNE,31,2.0,8.0,48,0.00,,,0.00,679,Wunderground v.1.15,2013-10-22 22:55:00,
2013-10-23 09:56:00,89.7,55.9,28.68,NW,315,10.0,-999.0,32,0.00,,,0.00,829,Wunderground v.1.15,2013-10-22 22:56:00,
2013-10-23 10:01:00,89.7,55.9,28.68,NW,315,10.0,-999.0,32,0.00,,,0.00,829,Wunderground v.1.15,2013-10-22 23:01:00,
2013-10-23 10:05:00,86.7,62.2,28.70,NE,41,3.0,11.0,44,0.00,,,0.00,751,Wunderground v.1.15,2013-10-22 23:05:00,
2013-10-23 10:06:00,89.7,55.9,28.68,NW,315,10.0,-999.0,32,0.00,,,0.00,829,Wunderground v.1.15,2013-10-22 23:06:00,
2013-10-23 10:10:00,87.5,62.2,28.70,NNE,17,3.0,11.0,43,0.00,,,0.00,719,Wunderground v.1.15,2013-10-22 23:10:00,
2013-10-23 10:11:00,89.7,55.9,28.68,NW,315,10.0,-999.0,32,0.00,,,0.00,829,Wunderground v.1.15,2013-10-22 23:11:00,
2013-10-23 10:15:00,88.5,59.7,28.70,WNW,296,3.0,11.0,38,0.00,,,0.00,668,Wunderground v.1.15,2013-10-22 23:15:00,
2013-10-23 10:16:00,90.5,55.7,28.67,NW,315,10.0,-999.0,31,0.00,,,0.00,800,Wunderground v.1.15,2013-10-22 23:16:00,
2013-10-23 10:20:00,88.4,57.3,28.69,NW,324,7.0,18.0,35,0.00,,,0.00,831,Wunderground v.1.15,2013-10-22 23:20:00,
2013-10-23 10:21:00,90.5,55.7,28.67,NW,315,10.0,-999.0,31,0.00,,,0.00,800,Wunderground v.1.15,2013-10-22 23:21:00,
2013-10-23 10:26:00,90.5,55.7,28.67,NW,315,10.0,-999.0,31,0.00,,,0.00,800,Wunderground v.1.15,2013-10-22 23:26:00,
2013-10-23 10:30:00,89.0,57.0,28.69,WNW,298,10.0,10.0,34,0.00,,,0.00,847,Wunderground v.1.15,2013-10-22 23:30:00,
2013-10-23 10:31:00,90.5,55.7,28.67,NW,315,10.0,-999.0,31,0.00,,,0.00,800,Wunderground v.1.15,2013-10-22 23:31:00,
2013-10-23 10:36:00,90.5,55.7,28.67,NW,315,10.0,-999.0,31,0.00,,,0.00,800,Wunderground v.1.15,2013-10-22 23:36:00,
2013-10-23 10:40:00,89.3,56.4,28.69,NNW,328,11.0,11.0,33,0.00,,,0.00,691,Wunderground v.1.15,2013-10-22 23:40:00,
2013-10-23 10:41:00,90.5,55.7,28.67,NW,315,10.0,-999.0,31,0.00,,,0.00,800,Wunderground v.1.15,2013-10-22 23:41:00,
2013-10-23 10:45:00,89.3,56.4,28.68,NNE,14,11.0,23.0,33,0.00,,,0.00,900,Wunderground v.1.15,2013-10-22 23:45:00,
2013-10-23 10:46:00,91.8,56.0,28.65,West,270,8.0,-999.0,30,0.00,,,0.00,906,Wunderground v.1.15,2013-10-22 23:46:00,
2013-10-23 10:50:00,90.2,55.5,28.68,NW,317,11.0,11.0,31,0.00,,,0.00,763,Wunderground v.1.15,2013-10-22 23:50:00,
2013-10-23 10:51:00,91.8,56.0,28.65,West,270,8.0,-999.0,30,0.00,,,0.00,906,Wunderground v.1.15,2013-10-22 23:51:00,
2013-10-23 10:55:00,90.1,55.4,28.68,WNW,298,10.0,15.0,31,0.00,,,0.00,900,Wunderground v.1.15,2013-10-22 23:55:00,
2013-10-23 10:56:00,91.8,56.0,28.65,West,270,8.0,-999.0,30,0.00,,,0.00,906,Wunderground v.1.15,2013-10-22 23:56:00,
2013-10-23 11:01:00,91.8,56.0,28.65,West,270,8.0,-999.0,30,0.00,,,0.00,906,Wunderground v.1.15,2013-10-23 00:01:00,
2013-10-23 11:05:00,90.7,55.9,28.68,NNW,336,10.0,25.0,31,0.00,,,0.00,928,Wunderground v.1.15,2013-10-23 00:05:00,
2013-10-23 11:06:00,91.8,56.0,28.65,West,270,8.0,-999.0,30,0.00,,,0.00,906,Wunderground v.1.15,2013-10-23 00:06:00,
2013-10-23 11:10:00,91.0,56.2,28.68,WNW,292,10.0,25.0,31,0.00,,,0.00,737,Wunderground v.1.15,2013-10-23 00:10:00,
2013-10-23 11:11:00,91.8,56.0,28.65,West,270,8.0,-999.0,30,0.00,,,0.00,906,Wunderground v.1.15,2013-10-23 00:11:00,
2013-10-23 11:15:00,90.3,55.6,28.68,WNW,290,11.0,25.0,31,0.00,,,0.00,540,Wunderground v.1.15,2013-10-23 00:15:00,
2013-10-23 11:16:00,92.7,54.8,28.64,NW,315,13.0,-999.0,28,0.00,,,0.00,944,Wunderground v.1.15,2013-10-23 00:16:00,
2013-10-23 11:21:00,92.7,54.8,28.64,NW,315,13.0,-999.0,28,0.00,,,0.00,944,Wunderground v.1.15,2013-10-23 00:21:00,
2013-10-23 11:26:00,92.7,54.8,28.64,NW,315,13.0,-999.0,28,0.00,,,0.00,944,Wunderground v.1.15,2013-10-23 00:26:00,
2013-10-23 11:30:00,91.2,56.3,28.67,NW,315,9.0,25.0,31,0.00,,,0.00,842,Wunderground v.1.15,2013-10-23 00:30:00,
2013-10-23 11:31:00,92.7,54.8,28.64,NW,315,13.0,-999.0,28,0.00,,,0.00,944,Wunderground v.1.15,2013-10-23 00:31:00,
2013-10-23 11:36:00,92.7,54.8,28.64,NW,315,13.0,-999.0,28,0.00,,,0.00,944,Wunderground v.1.15,2013-10-23 00:36:00,
2013-10-23 11:40:00,91.5,56.6,28.66,West,275,8.0,8.0,31,0.00,,,0.00,928,Wunderground v.1.15,2013-10-23 00:40:00,
2013-10-23 11:41:00,92.7,54.8,28.64,NW,315,13.0,-999.0,28,0.00,,,0.00,944,Wunderground v.1.15,2013-10-23 00:41:00,
2013-10-23 11:45:00,92.5,57.5,28.66,WNW,298,7.0,14.0,31,0.00,,,0.00,935,Wunderground v.1.15,2013-10-23 00:45:00,
2013-10-23 11:46:00,93.5,54.5,28.63,NW,315,11.0,-999.0,27,0.00,,,0.00,940,Wunderground v.1.15,2013-10-23 00:46:00,
2013-10-23 11:50:00,92.1,56.2,28.66,West,270,8.0,23.0,30,0.00,,,0.00,916,Wunderground v.1.15,2013-10-23 00:50:00,
2013-10-23 11:51:00,93.5,54.5,28.63,NW,315,11.0,-999.0,27,0.00,,,0.00,940,Wunderground v.1.15,2013-10-23 00:51:00,
2013-10-23 11:55:00,91.7,55.9,28.66,WSW,251,10.0,23.0,30,0.00,,,0.00,932,Wunderground v.1.15,2013-10-23 00:55:00,
2013-10-23 11:56:00,93.5,54.5,28.63,NW,315,11.0,-999.0,27,0.00,,,0.00,940,Wunderground v.1.15,2013-10-23 00:56:00,
2013-10-23 12:01:00,93.5,54.5,28.63,NW,315,11.0,-999.0,27,0.00,,,0.00,940,Wunderground v.1.15,2013-10-23 01:01:00,
2013-10-23 12:05:00,93.2,56.2,28.65,WNW,301,10.0,25.0,29,0.00,,,0.00,953,Wunderground v.1.15,2013-10-23 01:05:00,
2013-10-23 12:06:00,93.5,54.5,28.63,NW,315,11.0,-999.0,27,0.00,,,0.00,940,Wunderground v.1.15,2013-10-23 01:06:00,
2013-10-23 12:10:00,92.9,56.0,28.66,WNW,297,10.0,25.0,29,0.00,,,0.00,940,Wunderground v.1.15,2013-10-23 01:10:00,
2013-10-23 12:11:00,93.5,54.5,28.63,NW,315,11.0,-999.0,27,0.00,,,0.00,940,Wunderground v.1.15,2013-10-23 01:11:00,
2013-10-23 12:15:00,92.7,53.8,28.65,WNW,300,11.0,25.0,27,0.00,,,0.00,940,Wunderground v.1.15,2013-10-23 01:15:00,
2013-10-23 12:16:00,94.6,56.4,28.62,NW,315,11.0,-999.0,28,0.00,,,0.00,943,Wunderground v.1.15,2013-10-23 01:16:00,
2013-10-23 12:20:00,92.1,53.3,28.65,West,281,14.0,25.0,27,0.00,,,0.00,940,Wunderground v.1.15,2013-10-23 01:20:00,
2013-10-23 12:21:00,94.6,56.4,28.62,NW,315,11.0,-999.0,28,0.00,,,0.00,943,Wunderground v.1.15,2013-10-23 01:21:00,
2013-10-23 12:26:00,94.6,56.4,28.62,NW,315,11.0,-999.0,28,0.00,,,0.00,943,Wunderground v.1.15,2013-10-23 01:26:00,
2013-10-23 12:30:00,93.0,55.1,28.64,NNW,343,13.0,13.0,28,0.00,,,0.00,947,Wunderground v.1.15,2013-10-23 01:30:00,
2013-10-23 12:31:00,94.6,56.4,28.62,NW,315,11.0,-999.0,28,0.00,,,0.00,943,Wunderground v.1.15,2013-10-23 01:31:00,
2013-10-23 12:36:00,94.6,56.4,28.62,NW,315,11.0,-999.0,28,0.00,,,0.00,943,Wunderground v.1.15,2013-10-23 01:36:00,
2013-10-23 12:40:00,93.8,55.8,28.63,NW,308,11.0,33.0,28,0.00,,,0.00,939,Wunderground v.1.15,2013-10-23 01:40:00,
2013-10-23 12:41:00,94.6,56.4,28.62,NW,315,11.0,-999.0,28,0.00,,,0.00,943,Wunderground v.1.15,2013-10-23 01:41:00,
2013-10-23 12:45:00,93.4,55.4,28.63,WNW,286,11.0,33.0,28,0.00,,,0.00,939,Wunderground v.1.15,2013-10-23 01:45:00,
2013-10-23 12:46:00,95.4,51.7,28.61,NW,315,11.0,-999.0,23,0.00,,,0.00,927,Wunderground v.1.15,2013-10-23 01:46:00,
2013-10-23 12:51:00,95.4,51.7,28.61,NW,315,11.0,-999.0,23,0.00,,,0.00,927,Wunderground v.1.15,2013-10-23 01:51:00,
2013-10-23 12:56:00,95.4,51.7,28.61,NW,315,11.0,-999.0,23,0.00,,,0.00,927,Wunderground v.1.15,2013-10-23 01:56:00,
2013-10-23 13:01:00,95.4,51.7,28.61,NW,315,11.0,-999.0,23,0.00,,,0.00,927,Wunderground v.1.15,2013-10-23 02:01:00,
2013-10-23 13:06:00,95.4,51.7,28.61,NW,315,11.0,-999.0,23,0.00,,,0.00,927,Wunderground v.1.15,2013-10-23 02:06:00,
2013-10-23 13:11:00,95.4,51.7,28.61,NW,315,11.0,-999.0,23,0.00,,,0.00,927,Wunderground v.1.15,2013-10-23 02:11:00,
2013-10-23 13:16:00,95.4,50.5,28.61,WNW,293,12.0,-999.0,22,0.00,,,0.00,869,Wunderground v.1.15,2013-10-23 02:16:00,
2013-10-23 13:21:00,95.4,50.5,28.61,WNW,293,12.0,-999.0,22,0.00,,,0.00,869,Wunderground v.1.15,2013-10-23 02:21:00,
2013-10-23 13:26:00,95.4,50.5,28.61,WNW,293,12.0,-999.0,22,0.00,,,0.00,869,Wunderground v.1.15,2013-10-23 02:26:00,
2013-10-23 13:31:00,95.4,50.5,28.61,WNW,293,12.0,-999.0,22,0.00,,,0.00,869,Wunderground v.1.15,2013-10-23 02:31:00,
2013-10-23 13:36:00,95.4,50.5,28.61,WNW,293,12.0,-999.0,22,0.00,,,0.00,869,Wunderground v.1.15,2013-10-23 02:36:00,
2013-10-23 13:41:00,95.4,50.5,28.61,WNW,293,12.0,-999.0,22,0.00,,,0.00,869,Wunderground v.1.15,2013-10-23 02:41:00,
2013-10-23 13:46:00,95.1,50.3,28.60,WNW,293,13.0,-999.0,22,0.00,,,0.00,775,Wunderground v.1.15,2013-10-23 02:46:00,
2013-10-23 13:51:00,95.1,50.3,28.60,WNW,293,13.0,-999.0,22,0.00,,,0.00,775,Wunderground v.1.15,2013-10-23 02:51:00,
2013-10-23 13:56:00,95.1,50.3,28.60,WNW,293,13.0,-999.0,22,0.00,,,0.00,775,Wunderground v.1.15,2013-10-23 02:56:00,
2013-10-23 14:01:00,95.1,50.3,28.60,WNW,293,13.0,-999.0,22,0.00,,,0.00,775,Wunderground v.1.15,2013-10-23 03:01:00,
2013-10-23 14:06:00,95.1,50.3,28.60,WNW,293,13.0,-999.0,22,0.00,,,0.00,775,Wunderground v.1.15,2013-10-23 03:06:00,
2013-10-23 14:11:00,95.1,50.3,28.60,WNW,293,13.0,-999.0,22,0.00,,,0.00,775,Wunderground v.1.15,2013-10-23 03:11:00,
2013-10-23 14:16:00,95.1,50.3,28.60,WNW,293,11.0,-999.0,22,0.00,,,0.00,669,Wunderground v.1.15,2013-10-23 03:16:00,
2013-10-23 14:21:00,95.1,50.3,28.60,WNW,293,11.0,-999.0,22,0.00,,,0.00,669,Wunderground v.1.15,2013-10-23 03:21:00,
2013-10-23 14:26:00,95.1,50.3,28.60,WNW,293,11.0,-999.0,22,0.00,,,0.00,669,Wunderground v.1.15,2013-10-23 03:26:00,
2013-10-23 14:31:00,95.1,50.3,28.60,WNW,293,11.0,-999.0,22,0.00,,,0.00,669,Wunderground v.1.15,2013-10-23 03:31:00,
2013-10-23 14:36:00,95.1,50.3,28.60,WNW,293,11.0,-999.0,22,0.00,,,0.00,669,Wunderground v.1.15,2013-10-23 03:36:00,
2013-10-23 14:41:00,95.1,50.3,28.60,WNW,293,11.0,-999.0,22,0.00,,,0.00,669,Wunderground v.1.15,2013-10-23 03:41:00,
2013-10-23 14:46:00,95.1,41.9,28.61,West,270,10.0,-999.0,16,0.00,,,0.00,588,Wunderground v.1.15,2013-10-23 03:46:00,
2013-10-23 14:51:00,95.1,41.9,28.61,West,270,10.0,-999.0,16,0.00,,,0.00,588,Wunderground v.1.15,2013-10-23 03:51:00,
2013-10-23 14:56:00,95.1,41.9,28.61,West,270,10.0,-999.0,16,0.00,,,0.00,588,Wunderground v.1.15,2013-10-23 03:56:00,
2013-10-23 15:01:00,95.1,41.9,28.61,West,270,10.0,-999.0,16,0.00,,,0.00,588,Wunderground v.1.15,2013-10-23 04:01:00,
2013-10-23 15:06:00,95.1,41.9,28.61,West,270,10.0,-999.0,16,0.00,,,0.00,588,Wunderground v.1.15,2013-10-23 04:06:00,
2013-10-23 15:11:00,95.1,41.9,28.61,West,270,10.0,-999.0,16,0.00,,,0.00,588,Wunderground v.1.15,2013-10-23 04:11:00,
2013-10-23 15:16:00,94.4,44.4,28.61,WNW,293,11.0,-999.0,18,0.00,,,0.00,487,Wunderground v.1.15,2013-10-23 04:16:00,
2013-10-23 15:21:00,94.4,44.4,28.61,WNW,293,11.0,-999.0,18,0.00,,,0.00,487,Wunderground v.1.15,2013-10-23 04:21:00,
2013-10-23 15:26:00,94.4,44.4,28.61,WNW,293,11.0,-999.0,18,0.00,,,0.00,487,Wunderground v.1.15,2013-10-23 04:26:00,
2013-10-23 15:31:00,94.4,44.4,28.61,WNW,293,11.0,-999.0,18,0.00,,,0.00,487,Wunderground v.1.15,2013-10-23 04:31:00,
2013-10-23 15:36:00,94.4,44.4,28.61,WNW,293,11.0,-999.0,18,0.00,,,0.00,487,Wunderground v.1.15,2013-10-23 04:36:00,
2013-10-23 15:41:00,94.4,44.4,28.61,WNW,293,11.0,-999.0,18,0.00,,,0.00,487,Wunderground v.1.15,2013-10-23 04:41:00,
2013-10-23 15:46:00,93.5,43.6,28.62,WNW,293,9.0,-999.0,18,0.00,,,0.00,354,Wunderground v.1.15,2013-10-23 04:46:00,
2013-10-23 15:51:00,93.5,43.6,28.62,WNW,293,9.0,-999.0,18,0.00,,,0.00,354,Wunderground v.1.15,2013-10-23 04:51:00,
2013-10-23 15:56:00,93.5,43.6,28.62,WNW,293,9.0,-999.0,18,0.00,,,0.00,354,Wunderground v.1.15,2013-10-23 04:56:00,
2013-10-23 16:01:00,93.5,43.6,28.62,WNW,293,9.0,-999.0,18,0.00,,,0.00,354,Wunderground v.1.15,2013-10-23 05:01:00,
2013-10-23 16:06:00,93.5,43.6,28.62,WNW,293,9.0,-999.0,18,0.00,,,0.00,354,Wunderground v.1.15,2013-10-23 05:06:00,
2013-10-23 16:11:00,93.5,43.6,28.62,WNW,293,9.0,-999.0,18,0.00,,,0.00,354,Wunderground v.1.15,2013-10-23 05:11:00,
2013-10-23 16:16:00,92.8,43.1,28.63,West,270,8.0,-999.0,18,0.00,,,0.00,289,Wunderground v.1.15,2013-10-23 05:16:00,
2013-10-23 16:21:00,92.8,43.1,28.63,West,270,8.0,-999.0,18,0.00,,,0.00,289,Wunderground v.1.15,2013-10-23 05:21:00,
2013-10-23 16:26:00,92.8,43.1,28.63,West,270,8.0,-999.0,18,0.00,,,0.00,289,Wunderground v.1.15,2013-10-23 05:26:00,
2013-10-23 16:31:00,92.8,43.1,28.63,West,270,8.0,-999.0,18,0.00,,,0.00,289,Wunderground v.1.15,2013-10-23 05:31:00,
2013-10-23 16:36:00,92.8,43.1,28.63,West,270,8.0,-999.0,18,0.00,,,0.00,289,Wunderground v.1.15,2013-10-23 05:36:00,
2013-10-23 16:41:00,92.8,43.1,28.63,West,270,8.0,-999.0,18,0.00,,,0.00,289,Wunderground v.1.15,2013-10-23 05:41:00,
2013-10-23 16:46:00,91.6,37.4,28.64,West,270,8.0,-999.0,15,0.00,,,0.00,205,Wunderground v.1.15,2013-10-23 05:46:00,
2013-10-23 16:51:00,91.6,37.4,28.64,West,270,8.0,-999.0,15,0.00,,,0.00,205,Wunderground v.1.15,2013-10-23 05:51:00,
2013-10-23 16:56:00,91.6,37.4,28.64,West,270,8.0,-999.0,15,0.00,,,0.00,205,Wunderground v.1.15,2013-10-23 05:56:00,
2013-10-23 17:01:00,91.6,37.4,28.64,West,270,8.0,-999.0,15,0.00,,,0.00,205,Wunderground v.1.15,2013-10-23 06:01:00,
2013-10-23 17:06:00,91.6,37.4,28.64,West,270,8.0,-999.0,15,0.00,,,0.00,205,Wunderground v.1.15,2013-10-23 06:06:00,
2013-10-23 17:11:00,91.6,37.4,28.64,West,270,8.0,-999.0,15,0.00,,,0.00,205,Wunderground v.1.15,2013-10-23 06:11:00,
2013-10-23 17:16:00,90.9,36.8,28.66,West,270,5.0,-999.0,15,0.00,,,0.00,152,Wunderground v.1.15,2013-10-23 06:16:00,
2013-10-23 17:21:00,90.9,36.8,28.66,West,270,5.0,-999.0,15,0.00,,,0.00,152,Wunderground v.1.15,2013-10-23 06:21:00,
2013-10-23 17:26:00,90.9,36.8,28.66,West,270,5.0,-999.0,15,0.00,,,0.00,152,Wunderground v.1.15,2013-10-23 06:26:00,
2013-10-23 17:31:00,90.9,36.8,28.66,West,270,5.0,-999.0,15,0.00,,,0.00,152,Wunderground v.1.15,2013-10-23 06:31:00,
2013-10-23 17:36:00,90.9,36.8,28.66,West,270,5.0,-999.0,15,0.00,,,0.00,152,Wunderground v.1.15,2013-10-23 06:36:00,
2013-10-23 17:41:00,90.9,36.8,28.66,West,270,5.0,-999.0,15,0.00,,,0.00,152,Wunderground v.1.15,2013-10-23 06:41:00,
2013-10-23 17:46:00,89.6,40.5,28.68,West,270,4.0,-999.0,18,0.00,,,0.00,47,Wunderground v.1.15,2013-10-23 06:46:00,
2013-10-23 17:51:00,89.6,40.5,28.68,West,270,4.0,-999.0,18,0.00,,,0.00,47,Wunderground v.1.15,2013-10-23 06:51:00,
2013-10-23 17:56:00,89.6,40.5,28.68,West,270,4.0,-999.0,18,0.00,,,0.00,47,Wunderground v.1.15,2013-10-23 06:56:00,
2013-10-23 18:01:00,89.6,40.5,28.68,West,270,4.0,-999.0,18,0.00,,,0.00,47,Wunderground v.1.15,2013-10-23 07:01:00,
2013-10-23 18:06:00,89.6,40.5,28.68,West,270,4.0,-999.0,18,0.00,,,0.00,47,Wunderground v.1.15,2013-10-23 07:06:00,
2013-10-23 18:11:00,89.6,40.5,28.68,West,270,4.0,-999.0,18,0.00,,,0.00,47,Wunderground v.1.15,2013-10-23 07:11:00,
2013-10-23 18:16:00,85.8,41.3,28.71,SW,225,3.0,-999.0,21,0.00,,,0.00,3,Wunderground v.1.15,2013-10-23 07:16:00,
2013-10-23 18:21:00,85.8,41.3,28.71,SW,225,3.0,-999.0,21,0.00,,,0.00,3,Wunderground v.1.15,2013-10-23 07:21:00,
2013-10-23 18:26:00,85.8,41.3,28.71,SW,225,3.0,-999.0,21,0.00,,,0.00,3,Wunderground v.1.15,2013-10-23 07:26:00,
2013-10-23 18:31:00,85.8,41.3,28.71,SW,225,3.0,-999.0,21,0.00,,,0.00,3,Wunderground v.1.15,2013-10-23 07:31:00,
2013-10-23 18:36:00,85.8,41.3,28.71,SW,225,3.0,-999.0,21,0.00,,,0.00,3,Wunderground v.1.15,2013-10-23 07:36:00,
2013-10-23 18:41:00,85.8,41.3,28.71,SW,225,3.0,-999.0,21,0.00,,,0.00,3,Wunderground v.1.15,2013-10-23 07:41:00,
2013-10-23 18:46:00,81.8,62.5,28.74,SW,225,1.0,-999.0,52,0.00,,,0.00,0,Wunderground v.1.15,2013-10-23 07:46:00,
2013-10-23 18:51:00,81.8,62.5,28.74,SW,225,1.0,-999.0,52,0.00,,,0.00,0,Wunderground v.1.15,2013-10-23 07:51:00,
2013-10-23 18:56:00,81.8,62.5,28.74,SW,225,1.0,-999.0,52,0.00,,,0.00,0,Wunderground v.1.15,2013-10-23 07:56:00,
2013-10-23 19:01:00,81.8,62.5,28.74,SW,225,1.0,-999.0,52,0.00,,,0.00,0,Wunderground v.1.15,2013-10-23 08:01:00,
2013-10-23 19:06:00,81.8,62.5,28.74,SW,225,1.0,-999.0,52,0.00,,,0.00,0,Wunderground v.1.15,2013-10-23 08:06:00,
2013-10-23 19:11:00,81.8,62.5,28.74,SW,225,1.0,-999.0,52,0.00,,,0.00,0,Wunderground v.1.15,2013-10-23 08:11:00,
2013-10-23 19:16:00,74.6,61.2,28.76,SE,135,0.0,-999.0,63,0.00,,,0.00,0,Wunderground v.1.15,2013-10-23 08:16:00,
2013-10-23 19:21:00,74.6,61.2,28.76,SE,135,0.0,-999.0,63,0.00,,,0.00,0,Wunderground v.1.15,2013-10-23 08:21:00,
2013-10-23 19:26:00,74.6,61.2,28.76,SE,135,0.0,-999.0,63,0.00,,,0.00,0,Wunderground v.1.15,2013-10-23 08:26:00,
2013-10-23 19:31:00,74.6,61.2,28.76,SE,135,0.0,-999.0,63,0.00,,,0.00,0,Wunderground v.1.15,2013-10-23 08:31:00,
2013-10-23 19:36:00,74.6,61.2,28.76,SE,135,0.0,-999.0,63,0.00,,,0.00,0,Wunderground v.1.15,2013-10-23 08:36:00,
2013-10-23 19:41:00,74.6,61.2,28.76,SE,135,0.0,-999.0,63,0.00,,,0.00,0,Wunderground v.1.15,2013-10-23 08:41:00,
2013-10-23 19:46:00,72.4,60.4,28.78,NW,315,0.0,-999.0,66,0.00,,,0.00,0,Wunderground v.1.15,2013-10-23 08:46:00,
2013-10-23 19:51:00,72.4,60.4,28.78,NW,315,0.0,-999.0,66,0.00,,,0.00,0,Wunderground v.1.15,2013-10-23 08:51:00,
2013-10-23 19:56:00,72.4,60.4,28.78,NW,315,0.0,-999.0,66,0.00,,,0.00,0,Wunderground v.1.15,2013-10-23 08:56:00,
2013-10-23 20:01:00,72.4,60.4,28.78,NW,315,0.0,-999.0,66,0.00,,,0.00,0,Wunderground v.1.15,2013-10-23 09:01:00,
2013-10-23 20:06:00,72.4,60.4,28.78,NW,315,0.0,-999.0,66,0.00,,,0.00,0,Wunderground v.1.15,2013-10-23 09:06:00,
2013-10-23 20:11:00,72.4,60.4,28.78,NW,315,0.0,-999.0,66,0.00,,,0.00,0,Wunderground v.1.15,2013-10-23 09:11:00,
2013-10-23 20:16:00,71.2,59.7,28.79,N/A,-737280,0.0,-999.0,67,0.00,,,0.00,0,Wunderground v.1.15,2013-10-23 09:16:00,
2013-10-23 20:21:00,71.2,59.7,28.79,N/A,-737280,0.0,-999.0,67,0.00,,,0.00,0,Wunderground v.1.15,2013-10-23 09:21:00,
2013-10-23 20:26:00,71.2,59.7,28.79,N/A,-737280,0.0,-999.0,67,0.00,,,0.00,0,Wunderground v.1.15,2013-10-23 09:26:00,
2013-10-23 20:31:00,71.2,59.7,28.79,N/A,-737280,0.0,-999.0,67,0.00,,,0.00,0,Wunderground v.1.15,2013-10-23 09:31:00,
2013-10-23 20:36:00,71.2,59.7,28.79,N/A,-737280,0.0,-999.0,67,0.00,,,0.00,0,Wunderground v.1.15,2013-10-23 09:36:00,
2013-10-23 20:41:00,71.2,59.7,28.79,N/A,-737280,0.0,-999.0,67,0.00,,,0.00,0,Wunderground v.1.15,2013-10-23 09:41:00,
2013-10-23 20:46:00,70.0,59.8,28.81,North,0,0.0,-999.0,70,0.00,,,0.00,0,Wunderground v.1.15,2013-10-23 09:46:00,
2013-10-23 20:51:00,70.0,59.8,28.81,North,0,0.0,-999.0,70,0.00,,,0.00,0,Wunderground v.1.15,2013-10-23 09:51:00,
2013-10-23 20:56:00,70.0,59.8,28.81,North,0,0.0,-999.0,70,0.00,,,0.00,0,Wunderground v.1.15,2013-10-23 09:56:00,
2013-10-23 21:01:00,70.0,59.8,28.81,North,0,0.0,-999.0,70,0.00,,,0.00,0,Wunderground v.1.15,2013-10-23 10:01:00,
2013-10-23 21:06:00,70.0,59.8,28.81,North,0,0.0,-999.0,70,0.00,,,0.00,0,Wunderground v.1.15,2013-10-23 10:06:00,
2013-10-23 21:11:00,70.0,59.8,28.81,North,0,0.0,-999.0,70,0.00,,,0.00,0,Wunderground v.1.15,2013-10-23 10:11:00,
2013-10-23 21:16:00,69.0,59.2,28.81,N/A,-737280,0.0,-999.0,71,0.00,,,0.00,0,Wunderground v.1.15,2013-10-23 10:16:00,
2013-10-23 21:21:00,69.0,59.2,28.81,N/A,-737280,0.0,-999.0,71,0.00,,,0.00,0,Wunderground v.1.15,2013-10-23 10:21:00,
2013-10-23 21:26:00,69.0,59.2,28.81,N/A,-737280,0.0,-999.0,71,0.00,,,0.00,0,Wunderground v.1.15,2013-10-23 10:26:00,
2013-10-23 21:31:00,69.0,59.2,28.81,N/A,-737280,0.0,-999.0,71,0.00,,,0.00,0,Wunderground v.1.15,2013-10-23 10:31:00,
2013-10-23 21:36:00,69.0,59.2,28.81,N/A,-737280,0.0,-999.0,71,0.00,,,0.00,0,Wunderground v.1.15,2013-10-23 10:36:00,
2013-10-23 21:41:00,69.0,59.2,28.81,N/A,-737280,0.0,-999.0,71,0.00,,,0.00,0,Wunderground v.1.15,2013-10-23 10:41:00,
2013-10-23 21:46:00,68.8,59.0,28.81,North,0,0.0,-999.0,71,0.00,,,0.00,0,Wunderground v.1.15,2013-10-23 10:46:00,
2013-10-23 21:51:00,68.8,59.0,28.81,North,0,0.0,-999.0,71,0.00,,,0.00,0,Wunderground v.1.15,2013-10-23 10:51:00,
2013-10-23 21:56:00,68.8,59.0,28.81,North,0,0.0,-999.0,71,0.00,,,0.00,0,Wunderground v.1.15,2013-10-23 10:56:00,
2013-10-23 22:01:00,68.8,59.0,28.81,North,0,0.0,-999.0,71,0.00,,,0.00,0,Wunderground v.1.15,2013-10-23 11:01:00,
2013-10-23 22:06:00,68.8,59.0,28.81,North,0,0.0,-999.0,71,0.00,,,0.00,0,Wunderground v.1.15,2013-10-23 11:06:00,
2013-10-23 22:11:00,68.8,59.0,28.81,North,0,0.0,-999.0,71,0.00,,,0.00,0,Wunderground v.1.15,2013-10-23 11:11:00,
2013-10-23 22:16:00,68.1,58.7,28.82,NNE,23,0.0,-999.0,72,0.00,,,0.00,0,Wunderground v.1.15,2013-10-23 11:16:00,
2013-10-23 22:21:00,68.1,58.7,28.82,NNE,23,0.0,-999.0,72,0.00,,,0.00,0,Wunderground v.1.15,2013-10-23 11:21:00,
2013-10-23 22:26:00,68.1,58.7,28.82,NNE,23,0.0,-999.0,72,0.00,,,0.00,0,Wunderground v.1.15,2013-10-23 11:26:00,
2013-10-23 22:31:00,68.1,58.7,28.82,NNE,23,0.0,-999.0,72,0.00,,,0.00,0,Wunderground v.1.15,2013-10-23 11:31:00,
2013-10-23 22:36:00,68.1,58.7,28.82,NNE,23,0.0,-999.0,72,0.00,,,0.00,0,Wunderground v.1.15,2013-10-23 11:36:00,
2013-10-23 22:41:00,68.1,58.7,28.82,NNE,23,0.0,-999.0,72,0.00,,,0.00,0,Wunderground v.1.15,2013-10-23 11:41:00,
2013-10-23 22:46:00,67.7,58.3,28.83,NNE,23,0.0,-999.0,72,0.00,,,0.00,0,Wunderground v.1.15,2013-10-23 11:46:00,
2013-10-23 22:51:00,67.7,58.3,28.83,NNE,23,0.0,-999.0,72,0.00,,,0.00,0,Wunderground v.1.15,2013-10-23 11:51:00,
2013-10-23 22:56:00,67.7,58.3,28.83,NNE,23,0.0,-999.0,72,0.00,,,0.00,0,Wunderground v.1.15,2013-10-23 11:56:00,
2013-10-23 23:01:00,67.7,58.3,28.83,NNE,23,0.0,-999.0,72,0.00,,,0.00,0,Wunderground v.1.15,2013-10-23 12:01:00,
2013-10-23 23:06:00,67.7,58.3,28.83,NNE,23,0.0,-999.0,72,0.00,,,0.00,0,Wunderground v.1.15,2013-10-23 12:06:00,
2013-10-23 23:11:00,67.7,58.3,28.83,NNE,23,0.0,-999.0,72,0.00,,,0.00,0,Wunderground v.1.15,2013-10-23 12:11:00,
2013-10-23 23:16:00,67.7,58.3,28.83,NNE,23,0.0,-999.0,72,0.00,,,0.00,0,Wunderground v.1.15,2013-10-23 12:16:00,
2013-10-23 23:21:00,67.7,58.3,28.83,NNE,23,0.0,-999.0,72,0.00,,,0.00,0,Wunderground v.1.15,2013-10-23 12:21:00,
2013-10-23 23:26:00,67.7,58.3,28.83,NNE,23,0.0,-999.0,72,0.00,,,0.00,0,Wunderground v.1.15,2013-10-23 12:26:00,
2013-10-23 23:31:00,67.7,58.3,28.83,NNE,23,0.0,-999.0,72,0.00,,,0.00,0,Wunderground v.1.15,2013-10-23 12:31:00,
2013-10-23 23:36:00,67.7,58.3,28.83,NNE,23,0.0,-999.0,72,0.00,,,0.00,0,Wunderground v.1.15,2013-10-23 12:36:00,
2013-10-23 23:41:00,67.7,58.3,28.83,NNE,23,0.0,-999.0,72,0.00,,,0.00,0,Wunderground v.1.15,2013-10-23 12:41:00,
2013-10-23 23:46:00,67.0,58.1,28.84,NNE,23,0.0,-999.0,73,0.00,,,0.00,0,Wunderground v.1.15,2013-10-23 12:46:00,
2013-10-23 23:51:00,67.0,58.1,28.84,NNE,23,0.0,-999.0,73,0.00,,,0.00,0,Wunderground v.1.15,2013-10-23 12:51:00,
2013-10-23 23:56:00,67.0,58.1,28.84,NNE,23,0.0,-999.0,73,0.00,,,0.00,0,Wunderground v.1.15,2013-10-23 12:56:00,